createdAt,value
2022-10-06T00:02:24.945Z,99.89
2022-10-06T00:04:51.495Z,100.00
2022-10-06T00:07:18.230Z,99.06
2022-10-06T00:09:44.712Z,98.58
2022-10-06T00:12:11.719Z,98.90
2022-10-06T00:14:38.332Z,98.89
2022-10-06T00:17:05.189Z,98.69
2022-10-06T00:19:31.633Z,98.43
2022-10-06T00:21:58.143Z,98.18
2022-10-06T00:24:24.636Z,97.56
2022-10-06T00:26:51.207Z,97.12
2022-10-06T00:29:18.659Z,98.50
2022-10-06T00:31:45.243Z,97.36
2022-10-06T00:34:11.656Z,97.65
2022-10-06T00:36:38.779Z,97.80
2022-10-06T00:39:05.388Z,98.67
2022-10-06T00:41:31.837Z,98.66
2022-10-06T00:43:59.257Z,98.29
2022-10-06T00:46:41.215Z,99.07
2022-10-06T00:49:20.826Z,98.93
2022-10-06T00:52:07.048Z,98.28
2022-10-06T00:54:36.071Z,98.83
2022-10-06T00:57:04.610Z,98.50
2022-10-06T00:59:31.161Z,98.42
2022-10-06T01:02:09.421Z,98.87
2022-10-06T01:04:41.162Z,99.18
2022-10-06T01:07:08.484Z,98.88
2022-10-06T01:09:35.164Z,99.64
2022-10-06T01:12:04.830Z,99.29
2022-10-06T01:14:32.067Z,99.31
2022-10-06T01:17:37.395Z,98.71
2022-10-06T01:20:15.040Z,99.45
2022-10-06T01:22:44.847Z,98.92
2022-10-06T01:25:14.152Z,99.54
2022-10-06T01:27:44.696Z,98.77
2022-10-06T01:30:16.168Z,98.55
2022-10-06T01:32:42.949Z,96.36
2022-10-06T01:35:10.078Z,96.71
2022-10-06T01:37:36.636Z,97.08
2022-10-06T01:40:03.379Z,96.74
2022-10-06T01:42:32.946Z,97.78
2022-10-06T01:44:59.872Z,98.01
2022-10-06T01:47:26.440Z,98.17
2022-10-06T01:49:52.986Z,97.91
2022-10-06T01:52:20.355Z,98.04
2022-10-06T01:54:46.839Z,98.30
2022-10-06T01:57:13.416Z,98.03
2022-10-06T01:59:39.917Z,97.14
2022-10-06T02:02:06.437Z,98.12
2022-10-06T02:04:32.978Z,96.32
2022-10-06T02:06:59.446Z,96.06
2022-10-06T02:09:25.966Z,96.69
2022-10-06T02:11:52.443Z,96.54
2022-10-06T02:14:18.856Z,96.94
2022-10-06T02:16:45.548Z,97.74
2022-10-06T02:19:12.179Z,98.27
2022-10-06T02:21:39.802Z,98.38
2022-10-06T02:24:06.478Z,98.08
2022-10-06T02:26:33.166Z,99.50
2022-10-06T02:28:59.722Z,99.38
2022-10-06T02:31:26.289Z,99.20
2022-10-06T02:33:52.903Z,99.08
2022-10-06T02:36:19.885Z,99.36
2022-10-06T02:38:46.545Z,99.99
2022-10-06T02:41:13.020Z,99.62
2022-10-06T02:43:39.490Z,99.47
2022-10-06T02:46:13.644Z,99.90
2022-10-06T02:48:41.268Z,100.00
2022-10-06T02:51:11.563Z,99.38
2022-10-06T02:53:38.571Z,98.58
2022-10-06T02:56:08.083Z,99.39
2022-10-06T02:58:34.932Z,99.13
2022-10-06T03:01:06.573Z,98.40
2022-10-06T03:03:37.184Z,97.94
2022-10-06T03:06:25.433Z,98.58
2022-10-06T03:08:55.892Z,98.75
2022-10-06T03:11:30.145Z,99.60
2022-10-06T03:13:57.114Z,100.00
2022-10-06T03:16:26.698Z,100.00
2022-10-06T03:18:55.291Z,99.85
2022-10-06T03:21:24.027Z,99.51
2022-10-06T03:23:53.339Z,98.93
2022-10-06T03:26:22.650Z,98.82
2022-10-06T03:28:49.459Z,99.41
2022-10-06T03:31:16.426Z,99.69
2022-10-06T03:33:42.882Z,99.74
2022-10-06T03:36:16.573Z,100.00
2022-10-06T03:38:43.521Z,100.00
2022-10-06T03:41:16.149Z,100.00
2022-10-06T03:43:44.185Z,100.00
2022-10-06T03:46:12.667Z,99.92
2022-10-06T03:48:39.802Z,100.00
2022-10-06T03:51:11.375Z,100.00
2022-10-06T03:53:38.041Z,100.00
2022-10-06T03:56:04.556Z,100.00
2022-10-06T03:58:33.768Z,100.00
2022-10-06T04:01:01.546Z,100.00
2022-10-06T04:03:28.418Z,100.00
2022-10-06T04:06:00.790Z,100.00
2022-10-06T04:08:28.758Z,100.00
2022-10-06T04:10:56.274Z,100.00
2022-10-06T04:13:22.795Z,100.00
2022-10-06T04:15:49.215Z,100.00
2022-10-06T04:18:16.141Z,100.00
2022-10-06T04:20:42.641Z,100.00
2022-10-06T04:23:09.718Z,100.00
2022-10-06T04:25:36.192Z,100.00
2022-10-06T04:28:02.714Z,100.00
2022-10-06T04:30:29.262Z,100.00
2022-10-06T04:32:55.778Z,100.00
2022-10-06T04:35:23.381Z,100.00
2022-10-06T04:37:50.291Z,99.45
2022-10-06T04:40:16.839Z,100.00
2022-10-06T04:42:43.317Z,100.00
2022-10-06T04:45:10.501Z,100.00
2022-10-06T04:47:36.976Z,100.00
2022-10-06T04:50:03.945Z,100.00
2022-10-06T04:52:30.486Z,99.63
2022-10-06T04:54:57.291Z,99.12
2022-10-06T04:57:23.771Z,98.82
2022-10-06T05:00:12.562Z,99.54
2022-10-06T05:02:41.613Z,100.00
2022-10-06T05:05:08.183Z,100.00
2022-10-06T05:07:34.640Z,100.00
2022-10-06T05:10:01.110Z,100.00
2022-10-06T05:12:31.104Z,100.00
2022-10-06T05:14:58.038Z,100.00
2022-10-06T05:17:24.611Z,100.00
2022-10-06T05:19:51.074Z,100.00
2022-10-06T05:22:17.548Z,100.00
2022-10-06T05:24:44.027Z,100.00
2022-10-06T05:27:10.463Z,100.00
2022-10-06T05:29:37.119Z,100.00
2022-10-06T05:32:04.995Z,100.00
2022-10-06T05:34:31.614Z,100.00
2022-10-06T05:36:58.099Z,100.00
2022-10-06T05:39:24.650Z,100.00
2022-10-06T05:41:51.623Z,100.00
2022-10-06T05:44:18.042Z,100.00
2022-10-06T05:46:44.548Z,100.00
2022-10-06T05:49:12.912Z,100.00
2022-10-06T05:51:42.621Z,100.00
2022-10-06T05:54:09.076Z,100.00
2022-10-06T05:56:37.488Z,100.00
2022-10-06T05:59:05.115Z,100.00
2022-10-06T06:01:37.183Z,100.00
2022-10-06T06:04:06.507Z,100.00
2022-10-06T06:06:36.285Z,100.00
2022-10-06T06:09:08.426Z,100.00
2022-10-06T06:11:37.395Z,100.00
2022-10-06T06:14:12.828Z,100.00
2022-10-06T06:16:40.405Z,100.00
2022-10-06T06:19:08.901Z,100.00
2022-10-06T06:21:35.440Z,100.00
2022-10-06T06:24:02.850Z,100.00
2022-10-06T06:26:31.777Z,100.00
2022-10-06T06:29:03.910Z,100.00
2022-10-06T06:31:36.687Z,100.00
2022-10-06T06:34:06.471Z,100.00
2022-10-06T06:36:41.109Z,100.00
2022-10-06T06:39:10.621Z,100.00
2022-10-06T06:41:43.126Z,99.12
2022-10-06T06:44:11.435Z,99.17
2022-10-06T06:46:38.830Z,99.69
2022-10-06T06:49:06.455Z,99.64
2022-10-06T06:51:40.234Z,99.23
2022-10-06T06:54:07.905Z,97.83
2022-10-06T06:56:35.424Z,97.01
2022-10-06T06:59:06.595Z,96.60
2022-10-06T07:01:33.102Z,96.30
2022-10-06T07:03:59.660Z,94.83
2022-10-06T07:06:28.719Z,93.77
2022-10-06T07:08:57.649Z,92.35
2022-10-06T07:11:28.439Z,90.00
2022-10-06T07:14:01.297Z,87.70
2022-10-06T07:16:48.175Z,86.22
2022-10-06T07:19:34.577Z,85.52
2022-10-06T07:22:26.138Z,82.58
2022-10-06T07:25:07.856Z,79.92
2022-10-06T07:27:40.339Z,79.47
2022-10-06T07:30:07.219Z,77.40
2022-10-06T07:32:33.734Z,77.36
2022-10-06T07:35:00.783Z,77.36
2022-10-06T07:37:31.194Z,75.43
2022-10-06T07:39:57.673Z,75.69
2022-10-06T07:42:24.178Z,76.03
2022-10-06T07:45:09.203Z,75.39
2022-10-06T07:47:38.297Z,73.15
2022-10-06T07:50:08.623Z,73.78
2022-10-06T07:53:07.633Z,73.10
2022-10-06T07:55:36.303Z,73.54
2022-10-06T07:58:02.865Z,74.50
2022-10-06T08:00:29.393Z,74.39
2022-10-06T08:02:56.161Z,74.46
2022-10-06T08:05:22.672Z,74.01
2022-10-06T08:07:49.159Z,74.59
2022-10-06T08:10:18.354Z,75.04
2022-10-06T08:12:44.781Z,76.28
2022-10-06T08:15:12.971Z,76.49
2022-10-06T08:17:40.304Z,76.50
2022-10-06T08:20:09.838Z,74.77
2022-10-06T08:22:38.769Z,75.19
2022-10-06T08:25:07.573Z,76.10
2022-10-06T08:27:35.521Z,75.27
2022-10-06T08:30:04.102Z,76.37
2022-10-06T08:32:32.158Z,74.41
2022-10-06T08:34:58.985Z,75.28
2022-10-06T08:37:26.813Z,75.76
2022-10-06T08:39:54.692Z,76.47
2022-10-06T08:42:43.378Z,75.22
2022-10-06T08:45:32.086Z,76.14
2022-10-06T08:48:09.146Z,76.21
2022-10-06T08:50:43.812Z,76.42
2022-10-06T08:53:29.692Z,76.29
2022-10-06T08:56:18.055Z,76.27
2022-10-06T08:58:59.358Z,76.74
2022-10-06T09:01:29.940Z,77.01
2022-10-06T09:04:01.920Z,77.32
2022-10-06T09:06:51.742Z,77.08
2022-10-06T09:09:53.732Z,77.77
2022-10-06T09:12:20.800Z,77.72
2022-10-06T09:14:53.586Z,77.93
2022-10-06T09:17:29.736Z,77.30
2022-10-06T09:20:29.063Z,76.39
2022-10-06T09:22:56.756Z,77.18
2022-10-06T09:25:28.048Z,78.45
2022-10-06T09:27:57.511Z,77.54
2022-10-06T09:30:24.157Z,77.93
2022-10-06T09:33:02.734Z,78.04
2022-10-06T09:35:31.212Z,77.60
2022-10-06T09:38:08.157Z,77.52
2022-10-06T09:40:49.668Z,77.41
2022-10-06T09:43:22.675Z,77.24
2022-10-06T09:45:51.632Z,76.82
2022-10-06T09:48:25.202Z,77.47
2022-10-06T09:51:14.814Z,77.95
2022-10-06T09:53:42.026Z,77.27
2022-10-06T09:56:21.375Z,75.45
2022-10-06T09:58:56.436Z,75.93
2022-10-06T10:01:28.176Z,75.78
2022-10-06T10:04:20.686Z,74.54
2022-10-06T10:06:47.138Z,75.25
2022-10-06T10:09:21.910Z,75.96
2022-10-06T10:12:24.412Z,76.33
2022-10-06T10:14:52.091Z,75.88
2022-10-06T10:17:32.425Z,74.73
2022-10-06T10:20:01.382Z,73.53
2022-10-06T10:22:35.150Z,73.34
2022-10-06T10:25:04.493Z,74.52
2022-10-06T10:27:52.127Z,74.98
2022-10-06T10:30:18.770Z,74.04
2022-10-06T10:32:52.784Z,74.45
2022-10-06T10:35:47.131Z,75.43
2022-10-06T10:38:19.117Z,74.84
2022-10-06T10:41:09.699Z,73.49
2022-10-06T10:43:47.239Z,73.07
2022-10-06T10:46:21.666Z,74.08
2022-10-06T10:49:26.653Z,74.77
2022-10-06T10:52:09.233Z,74.16
2022-10-06T10:55:00.691Z,74.39
2022-10-06T10:57:35.275Z,74.86
2022-10-06T11:00:08.584Z,74.71
2022-10-06T11:02:35.742Z,74.90
2022-10-06T11:05:28.243Z,75.83
2022-10-06T11:08:11.074Z,74.78
2022-10-06T11:10:47.902Z,74.29
2022-10-06T11:13:48.896Z,72.93
2022-10-06T11:16:33.329Z,73.56
2022-10-06T11:19:41.302Z,72.42
2022-10-06T11:22:33.395Z,72.18
2022-10-06T11:25:13.532Z,71.93
2022-10-06T11:28:08.329Z,70.64
2022-10-06T11:31:00.089Z,71.03
2022-10-06T11:33:37.997Z,71.19
2022-10-06T11:36:12.352Z,71.42
2022-10-06T11:38:52.092Z,68.98
2022-10-06T11:41:31.556Z,69.57
2022-10-06T11:44:26.326Z,69.87
2022-10-06T11:46:57.012Z,69.54
2022-10-06T11:49:29.281Z,70.49
2022-10-06T11:52:00.119Z,70.53
2022-10-06T11:54:40.250Z,69.73
2022-10-06T11:57:30.962Z,68.99
2022-10-06T12:00:16.018Z,68.54
2022-10-06T12:02:44.566Z,68.79
2022-10-06T12:05:54.403Z,69.67
2022-10-06T12:08:08.071Z,69.14
2022-10-06T12:10:35.227Z,68.88
2022-10-06T12:13:21.168Z,68.59
2022-10-06T12:19:38.842Z,68.14
2022-10-06T12:22:32.986Z,67.46
2022-10-06T12:25:18.336Z,67.31
2022-10-06T12:28:04.767Z,68.90
2022-10-06T12:30:44.390Z,67.97
2022-10-06T12:33:18.597Z,69.44
2022-10-06T12:35:45.728Z,70.48
2022-10-06T12:38:30.870Z,68.19
2022-10-06T12:40:57.851Z,67.30
2022-10-06T12:43:24.273Z,66.81
2022-10-06T12:46:22.124Z,67.52
2022-10-06T12:49:06.797Z,68.10
2022-10-06T12:51:39.827Z,68.16
2022-10-06T12:54:12.048Z,66.59
2022-10-06T12:56:41.415Z,66.19
2022-10-06T12:59:22.659Z,66.34
2022-10-06T13:01:51.960Z,66.32
2022-10-06T13:04:43.609Z,66.35
2022-10-06T13:07:12.705Z,67.78
2022-10-06T13:09:39.209Z,68.49
2022-10-06T13:12:22.800Z,66.37
2022-10-06T13:15:19.767Z,65.04
2022-10-06T13:17:50.264Z,65.09
2022-10-06T13:20:25.324Z,66.26
2022-10-06T13:23:00.095Z,65.48
2022-10-06T13:25:34.206Z,65.39
2022-10-06T13:28:02.300Z,65.75
2022-10-06T13:30:29.016Z,63.88
2022-10-06T13:32:56.628Z,63.70
2022-10-06T13:35:25.809Z,65.56
2022-10-06T13:37:53.955Z,65.64
2022-10-06T13:40:46.068Z,65.47
2022-10-06T13:43:17.744Z,65.47
2022-10-06T13:45:47.242Z,66.39
2022-10-06T13:48:18.680Z,65.55
2022-10-06T13:50:49.470Z,66.10
2022-10-06T13:53:25.694Z,67.65
2022-10-06T13:55:53.147Z,68.69
2022-10-06T13:58:23.826Z,69.74
2022-10-06T14:01:02.020Z,70.07
2022-10-06T14:06:22.121Z,68.34
2022-10-06T14:08:55.246Z,67.93
2022-10-06T14:11:26.483Z,67.61
2022-10-06T14:13:58.082Z,67.86
2022-10-06T14:16:26.475Z,67.37
2022-10-06T14:21:35.039Z,65.76
2022-10-06T14:24:20.699Z,65.55
2022-10-06T14:26:52.225Z,66.28
2022-10-06T14:29:19.236Z,66.14
2022-10-06T14:31:47.195Z,66.32
2022-10-06T14:34:16.465Z,66.35
2022-10-06T14:36:45.626Z,65.86
2022-10-06T14:39:14.083Z,64.68
2022-10-06T14:41:41.893Z,64.26
2022-10-06T14:44:12.150Z,65.03
2022-10-06T14:46:41.260Z,65.79
2022-10-06T14:49:09.274Z,65.29
2022-10-06T14:51:37.358Z,65.74
2022-10-06T14:54:05.837Z,65.86
2022-10-06T14:56:34.312Z,66.41
2022-10-06T14:59:05.222Z,66.57
2022-10-06T15:01:34.206Z,66.67
2022-10-06T15:04:06.625Z,66.00
2022-10-06T15:06:51.535Z,67.13
2022-10-06T15:09:18.134Z,67.94
2022-10-06T15:11:45.043Z,67.84
2022-10-06T15:14:11.641Z,67.72
2022-10-06T15:16:42.062Z,67.08
2022-10-06T15:19:10.928Z,66.95
2022-10-06T15:21:39.793Z,66.29
2022-10-06T15:24:08.099Z,65.96
2022-10-06T15:26:53.140Z,66.15
2022-10-06T15:29:19.568Z,64.06
2022-10-06T15:31:53.055Z,65.20
2022-10-06T15:34:27.813Z,65.51
2022-10-06T15:36:55.975Z,65.20
2022-10-06T15:39:25.481Z,65.00
2022-10-06T15:41:52.715Z,64.89
2022-10-06T15:44:20.079Z,64.14
2022-10-06T15:46:56.778Z,65.22
2022-10-06T15:49:29.462Z,65.84
2022-10-06T15:51:59.349Z,66.31
2022-10-06T15:54:30.843Z,66.18
2022-10-06T15:56:59.507Z,65.18
2022-10-06T15:59:28.107Z,65.15
2022-10-06T16:01:57.675Z,65.78
2022-10-06T16:04:38.293Z,64.82
2022-10-06T16:07:16.353Z,65.43
2022-10-06T16:09:50.687Z,66.03
2022-10-06T16:12:20.553Z,66.62
2022-10-06T16:14:47.628Z,66.95
2022-10-06T16:17:15.028Z,67.62
2022-10-06T16:19:41.752Z,68.03
2022-10-06T16:22:11.790Z,67.09
2022-10-06T16:24:38.450Z,67.19
2022-10-06T16:27:05.292Z,67.65
2022-10-06T16:29:32.124Z,66.98
2022-10-06T16:32:01.407Z,66.53
2022-10-06T16:34:27.863Z,67.78
2022-10-06T16:36:54.267Z,67.40
2022-10-06T16:39:22.065Z,67.22
2022-10-06T16:41:49.087Z,68.22
2022-10-06T16:44:16.006Z,68.31
2022-10-06T16:46:43.205Z,68.79
2022-10-06T16:49:10.038Z,68.91
2022-10-06T16:51:38.619Z,68.97
2022-10-06T16:54:07.636Z,69.45
2022-10-06T16:56:45.100Z,69.88
2022-10-06T16:59:17.503Z,69.97
2022-10-06T17:01:44.467Z,70.15
2022-10-06T17:04:13.607Z,70.70
2022-10-06T17:06:45.349Z,70.86
2022-10-06T17:09:14.177Z,70.62
2022-10-06T17:11:46.153Z,71.05
2022-10-06T17:14:12.902Z,71.18
2022-10-06T17:16:42.071Z,72.09
2022-10-06T17:19:11.275Z,72.22
2022-10-06T17:21:46.240Z,72.42
2022-10-06T17:24:14.482Z,72.36
2022-10-06T17:26:43.368Z,72.70
2022-10-06T17:29:18.207Z,73.17
2022-10-06T17:31:45.567Z,73.58
2022-10-06T17:34:20.897Z,73.79
2022-10-06T17:36:50.538Z,74.24
2022-10-06T17:39:19.318Z,75.00
2022-10-06T17:41:47.609Z,75.18
2022-10-06T17:44:22.813Z,74.94
2022-10-06T17:46:51.856Z,74.83
2022-10-06T17:49:20.656Z,75.26
2022-10-06T17:51:50.856Z,75.39
2022-10-06T17:54:20.161Z,75.81
2022-10-06T17:56:49.263Z,76.10
2022-10-06T17:59:18.887Z,76.90
2022-10-06T18:01:45.519Z,77.88
2022-10-06T18:04:17.049Z,78.10
2022-10-06T18:06:45.349Z,79.13
2022-10-06T18:09:12.806Z,79.36
2022-10-06T18:11:41.783Z,79.75
2022-10-06T18:14:16.589Z,80.02
2022-10-06T18:16:53.419Z,80.41
2022-10-06T18:19:28.588Z,79.85
2022-10-06T18:22:00.239Z,79.38
2022-10-06T18:24:29.119Z,79.47
2022-10-06T18:26:58.411Z,80.66
2022-10-06T18:29:28.972Z,79.64
2022-10-06T18:32:04.818Z,80.76
2022-10-06T18:37:29.250Z,82.29
2022-10-06T18:39:55.711Z,81.62
2022-10-06T18:42:22.158Z,82.13
2022-10-06T18:45:07.079Z,83.21
2022-10-06T18:48:11.783Z,82.96
2022-10-06T18:50:39.444Z,84.26
2022-10-06T18:53:05.988Z,84.26
2022-10-06T18:55:32.684Z,84.42
2022-10-06T18:57:59.142Z,84.65
2022-10-06T19:00:25.997Z,85.78
2022-10-06T19:02:54.844Z,85.90
2022-10-06T19:05:21.340Z,85.00
2022-10-06T19:07:47.762Z,84.74
2022-10-06T19:10:14.264Z,85.49
2022-10-06T19:12:40.722Z,86.85
2022-10-06T19:15:08.409Z,85.92
2022-10-06T19:17:35.471Z,87.06
2022-10-06T19:20:02.533Z,87.98
2022-10-06T19:22:29.483Z,87.58
2022-10-06T19:24:56.532Z,86.80
2022-10-06T19:27:28.485Z,86.68
2022-10-06T19:29:56.904Z,87.75
2022-10-06T19:32:27.277Z,88.73
2022-10-06T19:34:57.943Z,88.19
2022-10-06T19:37:29.910Z,88.80
2022-10-06T19:39:57.187Z,89.71
2022-10-06T19:42:42.945Z,89.25
2022-10-06T19:45:12.431Z,89.63
2022-10-06T19:47:52.962Z,88.81
2022-10-06T19:50:20.126Z,88.81
2022-10-06T19:52:47.216Z,88.06
2022-10-06T19:55:14.588Z,87.79
2022-10-06T19:57:41.916Z,89.17
2022-10-06T20:00:10.599Z,89.42
2022-10-06T20:02:42.132Z,90.24
2022-10-06T20:05:11.814Z,91.32
2022-10-06T20:07:38.866Z,91.22
2022-10-06T20:10:06.161Z,91.17
2022-10-06T20:12:35.269Z,91.50
2022-10-06T20:15:02.374Z,91.48
2022-10-06T20:17:29.424Z,92.88
2022-10-06T20:19:59.691Z,92.64
2022-10-06T20:22:26.750Z,92.69
2022-10-06T20:24:54.022Z,93.55
2022-10-06T20:27:21.252Z,95.46
2022-10-06T20:29:47.776Z,95.28
2022-10-06T20:32:14.266Z,95.45
2022-10-06T20:34:40.867Z,96.23
2022-10-06T20:37:07.365Z,96.37
2022-10-06T20:39:52.521Z,96.60
2022-10-06T20:42:20.691Z,96.72
2022-10-06T20:44:47.155Z,97.18
2022-10-06T20:47:13.755Z,97.22
2022-10-06T20:49:42.378Z,96.20
2022-10-06T20:52:09.985Z,95.10
2022-10-06T20:54:37.427Z,94.48
2022-10-06T20:57:06.509Z,94.86
2022-10-06T20:59:35.377Z,94.68
2022-10-06T21:02:02.782Z,94.49
2022-10-06T21:04:30.284Z,95.47
2022-10-06T21:06:57.353Z,96.25
2022-10-06T21:09:28.661Z,96.54
2022-10-06T21:11:56.455Z,96.89
2022-10-06T21:14:23.204Z,97.23
2022-10-06T21:16:50.740Z,97.75
2022-10-06T21:19:19.206Z,97.76
2022-10-06T21:21:51.912Z,97.27
2022-10-06T21:24:19.508Z,97.35
2022-10-06T21:26:46.257Z,97.80
2022-10-06T21:29:15.335Z,98.85
2022-10-06T21:31:42.653Z,99.32
2022-10-06T21:34:09.322Z,99.48
2022-10-06T21:36:36.169Z,99.68
2022-10-06T21:39:04.651Z,100.00
2022-10-06T21:41:35.992Z,100.00
2022-10-06T21:44:08.162Z,100.00
2022-10-06T21:46:39.296Z,100.00
2022-10-06T21:49:09.867Z,100.00
2022-10-06T21:51:37.283Z,100.00
2022-10-06T21:54:04.449Z,100.00
2022-10-06T21:56:32.644Z,100.00
2022-10-06T21:58:59.633Z,100.00
2022-10-06T22:01:28.905Z,100.00
2022-10-06T22:03:57.240Z,100.00
2022-10-06T22:06:24.105Z,100.00
2022-10-06T22:08:50.619Z,100.00
2022-10-06T22:11:19.280Z,100.00
2022-10-06T22:13:48.364Z,100.00
2022-10-06T22:16:18.844Z,100.00
2022-10-06T22:18:46.058Z,100.00
2022-10-06T22:21:21.493Z,100.00
2022-10-06T22:23:54.733Z,100.00
2022-10-06T22:26:21.273Z,100.00
2022-10-06T22:28:50.045Z,100.00
2022-10-06T22:31:21.946Z,100.00
2022-10-06T22:33:54.884Z,100.00
2022-10-06T22:36:22.016Z,100.00
2022-10-06T22:38:48.627Z,100.00
2022-10-06T22:41:15.418Z,100.00
2022-10-06T22:43:42.319Z,100.00
2022-10-06T22:46:10.835Z,100.00
2022-10-06T22:48:37.795Z,100.00
2022-10-06T22:51:05.141Z,100.00
2022-10-06T22:53:32.337Z,100.00
2022-10-06T22:56:00.238Z,100.00
2022-10-06T22:58:27.133Z,100.00
2022-10-06T23:00:54.236Z,100.00
2022-10-06T23:03:21.476Z,100.00
2022-10-06T23:05:59.436Z,99.40
2022-10-06T23:08:30.183Z,99.33
2022-10-06T23:11:10.599Z,100.00
2022-10-06T23:13:37.457Z,100.00
2022-10-06T23:16:07.772Z,100.00
2022-10-06T23:18:36.517Z,100.00
2022-10-06T23:21:27.113Z,100.00
2022-10-06T23:23:55.685Z,100.00
2022-10-06T23:26:23.540Z,99.74
2022-10-06T23:28:52.371Z,99.88
2022-10-06T23:31:19.152Z,100.00
2022-10-06T23:33:46.112Z,99.96
2022-10-06T23:36:12.897Z,100.00
2022-10-06T23:38:40.142Z,100.00
2022-10-06T23:41:06.948Z,99.97
2022-10-06T23:43:33.782Z,100.00
2022-10-06T23:46:00.635Z,100.00
2022-10-06T23:48:27.578Z,100.00
2022-10-06T23:51:01.962Z,99.73
2022-10-06T23:53:30.171Z,100.00
2022-10-06T23:55:57.529Z,100.00
2022-10-06T23:58:24.634Z,100.00
